createdAt,value
2018-12-19T00:00:20.533Z,97.10
2018-12-19T00:02:52.210Z,97.20
2018-12-19T00:05:23.719Z,97.40
2018-12-19T00:07:55.328Z,97.70
2018-12-19T00:10:26.827Z,97.70
2018-12-19T00:12:58.429Z,97.80
2018-12-19T00:15:29.933Z,97.00
2018-12-19T00:18:01.444Z,97.20
2018-12-19T00:20:32.936Z,97.90
2018-12-19T00:23:04.711Z,98.50
2018-12-19T00:25:36.236Z,98.40
2018-12-19T00:28:07.829Z,98.20
2018-12-19T00:30:39.423Z,98.70
2018-12-19T00:33:10.921Z,98.80
2018-12-19T00:35:42.354Z,99.00
2018-12-19T00:38:13.900Z,99.40
2018-12-19T00:40:45.325Z,99.30
2018-12-19T00:43:16.923Z,99.10
2018-12-19T00:45:48.531Z,98.80
2018-12-19T00:48:20.104Z,98.70
2018-12-19T00:50:51.694Z,98.50
2018-12-19T00:53:23.141Z,98.60
2018-12-19T00:55:54.838Z,98.60
2018-12-19T00:58:26.438Z,98.70
2018-12-19T01:00:57.999Z,98.90
2018-12-19T01:03:29.420Z,98.90
2018-12-19T01:06:01.023Z,98.50
2018-12-19T01:08:32.615Z,97.90
2018-12-19T01:11:04.189Z,97.80
2018-12-19T01:13:35.764Z,98.10
2018-12-19T01:16:07.227Z,98.40
2018-12-19T01:18:38.781Z,98.60
2018-12-19T01:21:10.237Z,99.00
2018-12-19T01:23:41.788Z,98.70
2018-12-19T01:26:13.291Z,98.60
2018-12-19T01:28:44.897Z,98.20
2018-12-19T01:31:16.505Z,98.10
2018-12-19T01:33:48.018Z,98.40
2018-12-19T01:36:19.540Z,98.60
2018-12-19T01:38:51.818Z,98.20
2018-12-19T01:41:23.287Z,97.60
2018-12-19T01:43:54.833Z,97.70
2018-12-19T01:46:26.310Z,98.10
2018-12-19T01:48:57.821Z,98.40
2018-12-19T01:51:29.333Z,98.50
2018-12-19T01:54:00.834Z,98.30
2018-12-19T01:56:32.294Z,98.00
2018-12-19T01:59:03.842Z,98.20
2018-12-19T02:01:35.300Z,97.70
2018-12-19T02:04:06.948Z,98.20
2018-12-19T02:06:38.407Z,98.20
2018-12-19T02:09:10.572Z,98.10
2018-12-19T02:11:42.077Z,97.80
2018-12-19T02:14:13.580Z,98.10
2018-12-19T02:16:45.129Z,98.30
2018-12-19T02:19:16.585Z,98.30
2018-12-19T02:21:48.132Z,98.30
2018-12-19T02:24:19.546Z,98.20
2018-12-19T02:26:51.143Z,98.40
2018-12-19T02:29:22.597Z,97.80
2018-12-19T02:31:54.134Z,97.90
2018-12-19T02:34:25.597Z,98.40
2018-12-19T02:36:57.206Z,98.60
2018-12-19T02:39:28.615Z,98.80
2018-12-19T02:42:00.148Z,98.90
2018-12-19T02:44:31.677Z,98.90
2018-12-19T02:47:03.260Z,98.60
2018-12-19T02:49:39.778Z,98.20
2018-12-19T02:52:11.378Z,97.30
2018-12-19T02:54:42.961Z,97.30
2018-12-19T02:57:14.397Z,97.00
2018-12-19T02:59:46.001Z,97.20
2018-12-19T03:02:17.517Z,97.60
2018-12-19T03:04:49.054Z,98.10
2018-12-19T03:07:20.519Z,98.40
2018-12-19T03:09:52.115Z,98.40
2018-12-19T03:12:23.619Z,98.20
2018-12-19T03:14:55.215Z,97.90
2018-12-19T03:17:26.625Z,97.50
2018-12-19T03:19:58.232Z,97.20
2018-12-19T03:22:29.735Z,96.60
2018-12-19T03:25:01.269Z,95.90
2018-12-19T03:27:32.740Z,96.10
2018-12-19T03:30:04.348Z,96.40
2018-12-19T03:32:35.843Z,96.90
2018-12-19T03:35:07.518Z,97.40
2018-12-19T03:37:38.960Z,97.60
2018-12-19T03:40:10.505Z,97.60
2018-12-19T03:42:41.908Z,97.70
2018-12-19T03:45:13.506Z,97.70
2018-12-19T03:47:45.050Z,97.50
2018-12-19T03:50:16.585Z,97.40
2018-12-19T03:52:48.220Z,97.00
2018-12-19T03:55:19.788Z,96.50
2018-12-19T03:57:51.448Z,95.70
2018-12-19T04:00:22.948Z,95.20
2018-12-19T04:02:54.541Z,95.70
2018-12-19T04:05:27.091Z,96.10
2018-12-19T04:07:58.633Z,96.50
2018-12-19T04:10:30.325Z,97.10
2018-12-19T04:13:01.955Z,97.50
2018-12-19T04:15:33.589Z,97.70
2018-12-19T04:18:05.008Z,97.80
2018-12-19T04:20:36.605Z,97.80
2018-12-19T04:23:08.095Z,97.80
2018-12-19T04:25:39.704Z,97.90
2018-12-19T04:28:11.310Z,97.80
2018-12-19T04:30:42.920Z,97.90
2018-12-19T04:33:14.461Z,98.00
2018-12-19T04:35:46.236Z,98.00
2018-12-19T04:38:17.819Z,98.00
2018-12-19T04:40:49.210Z,98.30
2018-12-19T04:43:20.767Z,97.90
2018-12-19T04:45:52.391Z,97.90
2018-12-19T04:48:23.905Z,98.00
2018-12-19T04:50:55.508Z,98.00
2018-12-19T04:53:27.004Z,97.80
2018-12-19T04:55:58.608Z,97.50
2018-12-19T04:58:30.123Z,97.40
2018-12-19T05:01:01.717Z,97.40
2018-12-19T05:03:33.225Z,97.50
2018-12-19T05:06:04.784Z,97.60
2018-12-19T05:08:36.324Z,97.90
2018-12-19T05:11:07.840Z,98.00
2018-12-19T05:13:39.329Z,98.00
2018-12-19T05:16:10.979Z,98.10
2018-12-19T05:18:42.444Z,98.10
2018-12-19T05:21:13.991Z,98.20
2018-12-19T05:23:45.458Z,97.90
2018-12-19T05:26:17.008Z,98.00
2018-12-19T05:28:48.456Z,97.90
2018-12-19T05:31:19.992Z,97.90
2018-12-19T05:33:51.468Z,97.90
2018-12-19T05:36:23.008Z,97.70
2018-12-19T05:38:55.134Z,97.60
2018-12-19T05:41:26.630Z,97.60
2018-12-19T05:43:58.231Z,97.60
2018-12-19T05:46:29.752Z,97.80
2018-12-19T05:49:01.148Z,97.50
2018-12-19T05:51:32.828Z,96.80
2018-12-19T05:54:04.341Z,96.90
2018-12-19T05:56:36.053Z,96.60
2018-12-19T05:59:07.480Z,96.70
2018-12-19T06:01:39.073Z,96.90
2018-12-19T06:04:10.556Z,96.80
2018-12-19T06:06:42.164Z,96.90
2018-12-19T06:09:13.809Z,96.70
2018-12-19T06:11:45.479Z,96.30
2018-12-19T06:14:16.883Z,96.30
2018-12-19T06:16:48.478Z,95.80
2018-12-19T06:19:19.947Z,95.40
2018-12-19T06:21:51.543Z,94.90
2018-12-19T06:24:23.090Z,95.60
2018-12-19T06:26:54.757Z,95.70
2018-12-19T06:29:26.255Z,95.50
2018-12-19T06:31:57.801Z,95.40
2018-12-19T06:34:29.356Z,95.20
2018-12-19T06:37:00.964Z,94.30
2018-12-19T06:39:32.568Z,94.00
2018-12-19T06:42:04.179Z,94.30
2018-12-19T06:44:35.702Z,94.50
2018-12-19T06:47:07.087Z,95.20
2018-12-19T06:49:38.814Z,95.20
2018-12-19T06:52:10.283Z,95.50
2018-12-19T06:54:41.785Z,95.10
2018-12-19T06:57:13.201Z,94.90
2018-12-19T06:59:44.792Z,94.80
2018-12-19T07:02:16.237Z,94.90
2018-12-19T07:04:47.894Z,95.20
2018-12-19T07:07:19.368Z,95.70
2018-12-19T07:09:51.016Z,95.70
2018-12-19T07:12:22.560Z,95.60
2018-12-19T07:14:54.131Z,96.00
2018-12-19T07:17:25.651Z,96.40
2018-12-19T07:19:57.134Z,96.40
2018-12-19T07:22:28.732Z,96.60
2018-12-19T07:25:00.247Z,96.60
2018-12-19T07:27:31.790Z,96.80
2018-12-19T07:30:03.265Z,96.90
2018-12-19T07:32:34.777Z,97.00
2018-12-19T07:35:06.642Z,97.10
2018-12-19T07:37:38.197Z,97.10
2018-12-19T07:40:09.617Z,97.20
2018-12-19T07:42:41.208Z,96.90
2018-12-19T07:45:12.820Z,96.90
2018-12-19T07:47:44.324Z,97.20
2018-12-19T07:50:15.824Z,97.20
2018-12-19T07:52:47.696Z,97.60
2018-12-19T07:55:19.284Z,97.30
2018-12-19T07:57:50.703Z,97.30
2018-12-19T08:00:27.466Z,97.40
2018-12-19T08:02:55.888Z,97.60
2018-12-19T08:05:27.320Z,97.50
2018-12-19T08:07:58.900Z,97.60
2018-12-19T08:10:30.400Z,97.30
2018-12-19T08:13:01.895Z,97.30
2018-12-19T08:15:33.346Z,97.30
2018-12-19T08:18:05.675Z,97.30
2018-12-19T08:20:37.389Z,96.90
2018-12-19T08:23:08.826Z,96.80
2018-12-19T08:25:40.401Z,96.60
2018-12-19T08:28:11.906Z,96.30
2018-12-19T08:30:43.412Z,96.50
2018-12-19T08:33:15.012Z,96.20
2018-12-19T08:35:46.516Z,96.40
2018-12-19T08:38:18.196Z,96.50
2018-12-19T08:40:49.760Z,96.50
2018-12-19T08:43:21.132Z,96.40
2018-12-19T08:45:53.232Z,96.10
2018-12-19T08:48:25.000Z,96.00
2018-12-19T08:50:56.955Z,95.70
2018-12-19T08:53:28.647Z,95.80
2018-12-19T08:56:00.264Z,95.90
2018-12-19T08:58:31.682Z,95.50
2018-12-19T09:01:03.284Z,95.60
2018-12-19T09:03:34.696Z,95.50
2018-12-19T09:06:06.491Z,95.20
2018-12-19T09:08:38.032Z,95.00
2018-12-19T09:11:09.593Z,94.80
2018-12-19T09:13:41.010Z,94.90
2018-12-19T09:16:12.591Z,95.00
2018-12-19T09:18:44.165Z,94.80
2018-12-19T09:21:15.704Z,94.80
2018-12-19T09:23:47.316Z,94.70
2018-12-19T09:26:21.678Z,94.80
2018-12-19T09:28:53.189Z,94.60
2018-12-19T09:31:24.780Z,94.50
2018-12-19T09:33:56.405Z,94.50
2018-12-19T09:36:27.895Z,94.70
2018-12-19T09:38:59.498Z,94.70
2018-12-19T09:41:31.009Z,94.70
2018-12-19T09:44:02.407Z,94.50
2018-12-19T09:46:34.113Z,94.50
2018-12-19T09:49:12.220Z,94.60
2018-12-19T09:51:39.176Z,94.20
2018-12-19T09:54:10.715Z,94.30
2018-12-19T09:56:42.370Z,94.40
2018-12-19T09:59:13.926Z,94.60
2018-12-19T10:01:45.442Z,95.30
2018-12-19T10:04:17.083Z,94.90
2018-12-19T10:06:48.644Z,95.20
2018-12-19T10:09:20.252Z,95.20
2018-12-19T10:11:51.897Z,95.10
2018-12-19T10:14:23.458Z,94.90
2018-12-19T10:16:58.448Z,94.80
2018-12-19T10:19:29.936Z,95.10
2018-12-19T10:22:01.487Z,95.20
2018-12-19T10:24:38.218Z,95.10
2018-12-19T10:27:11.882Z,95.30
2018-12-19T10:29:43.371Z,95.20
2018-12-19T10:32:14.880Z,95.50
2018-12-19T10:34:46.502Z,95.70
2018-12-19T10:37:17.997Z,95.50
2018-12-19T10:39:49.801Z,95.80
2018-12-19T10:42:21.308Z,95.60
2018-12-19T10:44:52.901Z,95.90
2018-12-19T10:47:24.418Z,96.00
2018-12-19T10:49:56.024Z,96.00
2018-12-19T10:52:27.632Z,95.80
2018-12-19T10:54:59.122Z,95.80
2018-12-19T10:57:30.844Z,95.30
2018-12-19T11:00:02.372Z,95.80
2018-12-19T11:02:33.851Z,95.80
2018-12-19T11:05:05.725Z,95.80
2018-12-19T11:07:37.156Z,95.90
2018-12-19T11:10:09.771Z,96.00
2018-12-19T11:12:41.282Z,96.10
2018-12-19T11:15:12.699Z,96.00
2018-12-19T11:17:44.345Z,95.90
2018-12-19T11:20:15.910Z,96.00
2018-12-19T11:22:47.504Z,96.20
2018-12-19T11:25:19.112Z,96.20
2018-12-19T11:27:50.603Z,96.20
2018-12-19T11:30:22.024Z,96.30
2018-12-19T11:32:53.610Z,96.50
2018-12-19T11:35:25.215Z,96.50
2018-12-19T11:37:56.716Z,96.40
2018-12-19T11:40:28.337Z,96.50
2018-12-19T11:42:59.840Z,96.50
2018-12-19T11:45:31.438Z,96.80
2018-12-19T11:48:02.952Z,96.80
2018-12-19T11:50:34.548Z,96.90
2018-12-19T11:53:06.052Z,96.90
2018-12-19T11:55:37.695Z,96.80
2018-12-19T11:58:09.161Z,96.60
2018-12-19T12:00:40.800Z,96.50
2018-12-19T12:03:12.369Z,97.10
2018-12-19T12:05:43.914Z,96.60
2018-12-19T12:08:15.444Z,96.60
2018-12-19T12:10:47.016Z,96.90
2018-12-19T12:13:18.420Z,97.10
2018-12-19T12:15:50.124Z,97.10
2018-12-19T12:18:21.536Z,96.90
2018-12-19T12:20:53.117Z,97.00
2018-12-19T12:23:24.536Z,97.10
2018-12-19T12:25:56.044Z,97.00
2018-12-19T12:28:27.545Z,97.30
2018-12-19T12:30:59.143Z,97.60
2018-12-19T12:33:30.684Z,97.70
2018-12-19T12:36:02.608Z,97.40
2018-12-19T12:38:34.440Z,97.30
2018-12-19T12:41:06.066Z,97.30
2018-12-19T12:43:37.628Z,97.50
2018-12-19T12:46:09.252Z,97.70
2018-12-19T12:48:40.751Z,97.70
2018-12-19T12:51:12.350Z,98.00
2018-12-19T12:53:43.864Z,98.00
2018-12-19T12:56:15.404Z,98.00
2018-12-19T12:58:46.861Z,98.20
2018-12-19T13:01:18.500Z,98.20
2018-12-19T13:03:49.960Z,98.30
2018-12-19T13:06:21.524Z,98.20
2018-12-19T13:08:53.020Z,98.20
2018-12-19T13:11:24.710Z,98.40
2018-12-19T13:13:56.147Z,98.30
2018-12-19T13:16:27.717Z,98.10
2018-12-19T13:18:59.341Z,98.30
2018-12-19T13:21:31.188Z,98.40
2018-12-19T13:24:02.692Z,98.50
2018-12-19T13:26:34.158Z,98.60
2018-12-19T13:29:05.697Z,98.60
2018-12-19T13:31:37.158Z,99.00
2018-12-19T13:34:08.770Z,98.60
2018-12-19T13:36:40.272Z,98.20
2018-12-19T13:39:11.882Z,98.10
2018-12-19T13:41:43.381Z,98.10
2018-12-19T13:44:16.198Z,98.40
2018-12-19T13:46:47.912Z,98.70
2018-12-19T13:49:19.453Z,98.60
2018-12-19T13:51:51.029Z,98.70
2018-12-19T13:54:22.418Z,98.80
2018-12-19T13:56:54.015Z,99.10
2018-12-19T13:59:25.574Z,99.00
2018-12-19T14:01:57.119Z,99.10
2018-12-19T14:04:29.082Z,99.10
2018-12-19T14:07:01.230Z,99.20
2018-12-19T14:09:32.923Z,99.00
2018-12-19T14:12:04.573Z,99.10
2018-12-19T14:14:36.221Z,99.10
2018-12-19T14:17:07.776Z,99.10
2018-12-19T14:19:39.492Z,99.10
2018-12-19T14:22:11.009Z,99.10
2018-12-19T14:24:42.461Z,99.30
2018-12-19T14:27:14.101Z,99.20
2018-12-19T14:29:45.717Z,99.20
2018-12-19T14:32:17.220Z,99.30
2018-12-19T14:34:49.176Z,99.30
2018-12-19T14:37:20.588Z,99.40
2018-12-19T14:39:52.165Z,99.30
2018-12-19T14:42:23.633Z,99.30
2018-12-19T14:44:55.479Z,99.20
2018-12-19T14:47:27.104Z,99.20
2018-12-19T14:49:58.608Z,99.40
2018-12-19T14:52:30.243Z,99.20
2018-12-19T14:55:01.711Z,99.50
2018-12-19T14:57:33.318Z,99.20
2018-12-19T15:00:05.668Z,99.30
2018-12-19T15:02:37.089Z,99.00
2018-12-19T15:05:08.636Z,98.90
2018-12-19T15:07:40.090Z,99.20
2018-12-19T15:10:11.857Z,99.10
2018-12-19T15:12:43.513Z,99.40
2018-12-19T15:15:15.158Z,99.20
2018-12-19T15:17:46.777Z,99.30
2018-12-19T15:20:18.281Z,99.20
2018-12-19T15:22:49.881Z,99.20
2018-12-19T15:25:21.390Z,99.50
2018-12-19T15:27:52.989Z,99.00
2018-12-19T15:30:24.500Z,99.10
2018-12-19T15:32:56.136Z,99.10
2018-12-19T15:35:27.608Z,99.20
2018-12-19T15:37:59.146Z,99.00
2018-12-19T15:40:30.600Z,99.00
2018-12-19T15:43:02.143Z,99.10
2018-12-19T15:45:33.606Z,99.30
2018-12-19T15:48:05.212Z,99.30
2018-12-19T15:50:36.720Z,99.30
2018-12-19T15:53:08.264Z,99.40
2018-12-19T15:55:39.720Z,99.60
2018-12-19T15:58:11.333Z,99.60
2018-12-19T16:00:42.834Z,99.70
2018-12-19T16:03:14.379Z,99.60
2018-12-19T16:05:45.834Z,99.90
2018-12-19T16:08:17.434Z,99.70
2018-12-19T16:10:49.050Z,99.60
2018-12-19T16:13:20.587Z,99.70
2018-12-19T16:15:52.056Z,99.90
2018-12-19T16:18:23.593Z,99.90
2018-12-19T16:20:55.238Z,99.90
2018-12-19T16:23:26.800Z,99.90
2018-12-19T16:25:58.381Z,99.90
2018-12-19T16:28:29.905Z,99.90
2018-12-19T16:31:01.365Z,99.90
2018-12-19T16:33:32.919Z,99.90
2018-12-19T16:36:04.386Z,99.90
2018-12-19T16:38:35.986Z,99.90
2018-12-19T16:41:07.497Z,99.90
2018-12-19T16:43:39.089Z,99.90
2018-12-19T16:46:10.599Z,99.90
2018-12-19T16:48:42.194Z,99.90
2018-12-19T16:51:13.716Z,99.90
2018-12-19T16:53:45.252Z,99.90
2018-12-19T16:56:16.707Z,99.90
2018-12-19T16:58:48.304Z,99.90
2018-12-19T17:01:19.919Z,99.90
2018-12-19T17:03:51.556Z,99.90
2018-12-19T17:06:22.988Z,99.90
2018-12-19T17:08:54.568Z,99.90
2018-12-19T17:11:26.080Z,99.90
2018-12-19T17:13:57.679Z,99.90
2018-12-19T17:16:29.092Z,99.90
2018-12-19T17:19:00.690Z,99.90
2018-12-19T17:21:32.301Z,99.90
2018-12-19T17:24:03.811Z,99.90
2018-12-19T17:26:35.320Z,99.90
2018-12-19T17:29:06.903Z,99.90
2018-12-19T17:31:38.514Z,99.90
2018-12-19T17:34:10.020Z,99.90
2018-12-19T17:36:41.620Z,99.90
2018-12-19T17:39:13.129Z,99.90
2018-12-19T17:41:44.663Z,99.90
2018-12-19T17:44:16.229Z,99.90
2018-12-19T17:46:47.836Z,99.90
2018-12-19T17:49:19.349Z,99.90
2018-12-19T17:51:50.949Z,99.90
2018-12-19T17:54:22.446Z,99.90
2018-12-19T17:56:54.053Z,99.90
2018-12-19T17:59:25.535Z,99.90
2018-12-19T18:01:57.267Z,99.90
2018-12-19T18:04:28.716Z,99.90
2018-12-19T18:07:00.303Z,99.90
2018-12-19T18:09:31.821Z,99.90
2018-12-19T18:12:03.515Z,99.80
2018-12-19T18:14:35.137Z,99.90
2018-12-19T18:17:06.645Z,99.80
2018-12-19T18:19:38.244Z,99.80
2018-12-19T18:22:09.745Z,99.90
2018-12-19T18:24:41.299Z,99.90
2018-12-19T18:27:12.761Z,99.90
2018-12-19T18:29:44.391Z,99.90
2018-12-19T18:32:15.870Z,99.90
2018-12-19T18:34:48.186Z,99.70
2018-12-19T18:37:19.767Z,99.90
2018-12-19T18:39:51.184Z,99.90
2018-12-19T18:42:23.086Z,99.90
2018-12-19T18:44:54.700Z,99.90
2018-12-19T18:47:26.209Z,99.90
2018-12-19T18:49:57.762Z,99.90
2018-12-19T18:52:29.207Z,99.90
2018-12-19T18:55:00.748Z,99.90
2018-12-19T18:57:32.226Z,99.90
2018-12-19T19:00:04.425Z,99.90
2018-12-19T19:02:36.230Z,99.90
2018-12-19T19:05:08.090Z,99.90
2018-12-19T19:07:39.698Z,99.90
2018-12-19T19:10:11.680Z,99.90
2018-12-19T19:12:43.430Z,99.90
2018-12-19T19:15:15.017Z,99.90
2018-12-19T19:17:46.636Z,99.90
2018-12-19T19:20:18.165Z,99.90
2018-12-19T19:22:49.561Z,99.90
2018-12-19T19:25:21.137Z,99.90
2018-12-19T19:27:52.590Z,99.90
2018-12-19T19:30:24.151Z,99.90
2018-12-19T19:32:55.564Z,99.90
2018-12-19T19:35:27.164Z,99.90
2018-12-19T19:37:58.777Z,99.90
2018-12-19T19:40:30.497Z,99.90
2018-12-19T19:43:02.083Z,99.90
2018-12-19T19:45:33.586Z,99.90
2018-12-19T19:48:05.126Z,99.90
2018-12-19T19:50:36.592Z,99.90
2018-12-19T19:53:08.191Z,99.90
2018-12-19T19:55:39.690Z,99.90
2018-12-19T19:58:11.351Z,99.90
2018-12-19T20:00:42.804Z,99.90
2018-12-19T20:03:14.340Z,99.90
2018-12-19T20:05:45.818Z,99.90
2018-12-19T20:08:17.351Z,99.90
2018-12-19T20:10:48.821Z,99.90
2018-12-19T20:13:20.365Z,99.90
2018-12-19T20:15:51.948Z,99.90
2018-12-19T20:18:23.535Z,99.90
2018-12-19T20:20:55.089Z,99.90
2018-12-19T20:23:26.744Z,99.90
2018-12-19T20:25:58.239Z,99.90
2018-12-19T20:28:29.780Z,99.90
2018-12-19T20:31:01.413Z,99.90
2018-12-19T20:33:32.999Z,99.90
2018-12-19T20:36:04.424Z,99.90
2018-12-19T20:38:36.208Z,99.90
2018-12-19T20:41:07.821Z,99.90
2018-12-19T20:43:40.021Z,99.90
2018-12-19T20:46:11.844Z,99.90
2018-12-19T20:48:43.539Z,99.90
2018-12-19T20:51:14.967Z,99.90
2018-12-19T20:53:46.555Z,99.90
2018-12-19T20:56:18.162Z,99.90
2018-12-19T20:58:49.788Z,99.90
2018-12-19T21:01:21.190Z,99.90
2018-12-19T21:03:52.764Z,99.90
2018-12-19T21:06:24.375Z,99.90
2018-12-19T21:08:55.889Z,99.90
2018-12-19T21:11:27.738Z,99.90
2018-12-19T21:13:59.324Z,99.90
2018-12-19T21:16:35.695Z,99.90
2018-12-19T21:19:07.120Z,99.90
2018-12-19T21:21:38.760Z,99.90
2018-12-19T21:24:10.241Z,99.90
2018-12-19T21:26:41.763Z,99.90
2018-12-19T21:29:13.800Z,99.90
2018-12-19T21:31:45.297Z,99.90
2018-12-19T21:34:16.909Z,99.90
2018-12-19T21:36:48.530Z,99.90
2018-12-19T21:39:19.896Z,99.90
2018-12-19T21:41:51.513Z,99.90
2018-12-19T21:44:23.157Z,99.90
2018-12-19T21:46:55.183Z,99.90
2018-12-19T21:49:26.688Z,99.90
2018-12-19T21:51:58.222Z,99.90
2018-12-19T21:54:29.849Z,99.90
2018-12-19T21:57:02.921Z,99.90
2018-12-19T21:59:34.898Z,99.90
2018-12-19T22:02:07.055Z,99.90
2018-12-19T22:04:38.748Z,99.90
2018-12-19T22:07:10.334Z,99.90
2018-12-19T22:09:41.873Z,99.90
2018-12-19T22:12:13.323Z,99.90
2018-12-19T22:14:45.117Z,99.90
2018-12-19T22:17:21.751Z,99.90
2018-12-19T22:19:53.222Z,99.90
2018-12-19T22:22:24.817Z,99.90
2018-12-19T22:24:56.630Z,99.90
2018-12-19T22:27:28.270Z,99.90
2018-12-19T22:29:59.832Z,99.90
2018-12-19T22:32:31.387Z,99.90
2018-12-19T22:35:02.877Z,99.90
2018-12-19T22:37:34.549Z,99.90
2018-12-19T22:40:07.678Z,99.90
2018-12-19T22:42:39.156Z,99.90
2018-12-19T22:45:10.771Z,99.90
2018-12-19T22:47:42.252Z,99.90
2018-12-19T22:50:13.902Z,99.90
2018-12-19T22:52:45.617Z,99.90
2018-12-19T22:55:16.976Z,99.90
2018-12-19T22:57:48.472Z,99.90
2018-12-19T23:00:20.825Z,99.90
2018-12-19T23:02:57.535Z,99.90
2018-12-19T23:05:34.091Z,99.90
2018-12-19T23:08:05.696Z,99.90
2018-12-19T23:10:37.233Z,99.90
2018-12-19T23:13:08.515Z,99.90
2018-12-19T23:15:40.203Z,99.90
2018-12-19T23:18:16.820Z,99.90
2018-12-19T23:20:48.296Z,99.90
2018-12-19T23:23:19.938Z,99.90
2018-12-19T23:25:51.787Z,99.90
2018-12-19T23:28:23.313Z,99.90
2018-12-19T23:30:54.851Z,99.90
2018-12-19T23:33:26.362Z,99.90
2018-12-19T23:35:58.282Z,99.90
2018-12-19T23:38:29.813Z,99.90
2018-12-19T23:41:01.476Z,99.90
2018-12-19T23:43:33.080Z,99.90
2018-12-19T23:46:04.689Z,99.90
2018-12-19T23:48:36.793Z,99.90
2018-12-19T23:51:08.460Z,99.90
2018-12-19T23:53:39.991Z,99.90
2018-12-19T23:56:11.530Z,99.90
2018-12-19T23:58:43.071Z,99.90
